Time;durP1;ratioP1;P1;durP2;ratioP2;P2;SDS_P1;SDS_P2;PMS_P1;PMS_P2;Temp;Humidity;BMP_temperature;BMP_pressure;BME280_temperature;BME280_humidity;BME280_pressure;Samples;Min_cycle;Max_cycle;Signal;HPM_P1;HPM_P2
2023/04/07 00:02:02;;;;;;;35.50;32.85;;;;;;;3.83;100.00;100869.94;6335729;22;20015;-92
2023/04/07 00:04:30;;;;;;;40.38;37.35;;;;;;;3.94;100.00;100864.41;6335909;22;20405;-92
2023/04/07 00:06:57;;;;;;;37.58;33.92;;;;;;;3.83;100.00;100867.28;6336637;22;20026;-92
2023/04/07 00:09:24;;;;;;;33.08;30.30;;;;;;;3.84;100.00;100867.16;6336361;22;20015;-93
2023/04/07 00:11:51;;;;;;;36.55;33.65;;;;;;;3.81;100.00;100869.25;6335808;22;20086;-92
2023/04/07 00:14:18;;;;;;;39.95;36.75;;;;;;;3.88;100.00;100868.47;6336024;22;20014;-92
2023/04/07 00:16:45;;;;;;;35.45;32.40;;;;;;;3.92;100.00;100866.34;6335865;22;20018;-92
2023/04/07 00:19:12;;;;;;;35.35;32.28;;;;;;;3.83;100.00;100869.94;6335917;22;20076;-92
2023/04/07 00:21:40;;;;;;;37.42;34.42;;;;;;;3.77;100.00;100871.38;6335604;22;20493;-94
2023/04/07 00:24:07;;;;;;;41.33;37.97;;;;;;;3.71;100.00;100873.81;6336056;22;20183;-92
2023/04/07 00:26:34;;;;;;;37.42;34.38;;;;;;;3.72;100.00;100872.81;6336112;22;20019;-93
2023/04/07 00:29:01;;;;;;;39.45;36.55;;;;;;;3.62;100.00;100870.31;6336318;22;20076;-93
2023/04/07 00:31:28;;;;;;;36.50;33.30;;;;;;;3.56;100.00;100873.56;6335740;22;20025;-93
2023/04/07 00:33:56;;;;;;;42.08;38.95;;;;;;;3.58;100.00;100876.88;6335995;22;20014;-92
2023/04/07 00:36:23;;;;;;;35.85;32.90;;;;;;;3.29;100.00;100870.13;6336062;22;20068;-92
2023/04/07 00:38:51;;;;;;;39.17;35.65;;;;;;;3.55;100.00;100872.75;6336010;22;20014;-92
2023/04/07 00:41:18;;;;;;;41.83;38.67;;;;;;;3.49;100.00;100868.13;6336076;22;20015;-92
2023/04/07 00:43:45;;;;;;;38.08;34.78;;;;;;;3.35;100.00;100864.25;6335805;22;20014;-93
2023/04/07 00:46:12;;;;;;;35.42;32.42;;;;;;;3.47;100.00;100872.69;6335635;22;20022;-92
2023/04/07 00:48:39;;;;;;;37.28;33.85;;;;;;;3.43;100.00;100868.75;6335247;22;20093;-93
2023/04/07 00:51:07;;;;;;;35.17;32.35;;;;;;;3.41;100.00;100871.50;6335044;22;20017;-94
2023/04/07 00:53:34;;;;;;;36.05;32.95;;;;;;;3.26;100.00;100865.19;6335698;22;20075;-93
2023/04/07 00:56:02;;;;;;;36.72;33.72;;;;;;;3.31;100.00;100867.38;6335875;22;20010;-93
2023/04/07 00:58:29;;;;;;;37.50;34.25;;;;;;;3.30;100.00;100871.81;6335446;22;20029;-92
2023/04/07 01:01:07;;;;;;;39.15;36.00;;;;;;;3.32;100.00;100874.25;6335866;22;20027;-91
2023/04/07 01:03:39;;;;;;;43.95;40.53;;;;;;;3.28;100.00;100872.94;6336133;22;20358;-93
2023/04/07 01:06:08;;;;;;;39.97;36.63;;;;;;;3.33;100.00;100870.63;6335735;22;20425;-93
2023/04/07 01:08:42;;;;;;;38.22;34.92;;;;;;;3.28;100.00;100863.25;6335907;22;20033;-92
2023/04/07 01:11:20;;;;;;;41.85;38.45;;;;;;;3.27;100.00;100866.00;6335614;22;20117;-93
2023/04/07 01:13:50;;;;;;;39.33;36.22;;;;;;;3.31;100.00;100854.25;6336266;22;20076;-92
2023/04/07 01:16:23;;;;;;;43.55;39.95;;;;;;;3.32;100.00;100861.13;6335498;22;20022;-93
2023/04/07 01:18:54;;;;;;;44.10;40.72;;;;;;;3.31;100.00;100862.94;6335755;22;20122;-93
2023/04/07 01:21:26;;;;;;;40.90;37.47;;;;;;;3.34;100.00;100864.44;6335106;22;20021;-92
2023/04/07 01:24:05;;;;;;;39.65;35.72;;;;;;;3.32;100.00;100864.56;6335825;22;20045;-93
2023/04/07 01:26:35;;;;;;;42.33;38.92;;;;;;;3.27;100.00;100861.59;6335380;22;20015;-92
2023/04/07 01:29:39;;;;;;;37.28;33.95;;;;;;;3.31;100.00;100865.56;6335150;22;20011;-93
2023/04/07 01:32:11;;;;;;;41.78;38.03;;;;;;;3.38;100.00;100863.94;6263900;22;20026;-91
2023/04/07 01:34:38;;;;;;;;;;;;;;;3.34;100.00;100865.25;6335927;22;20019;-94
2023/04/07 01:37:06;;;;;;;40.08;37.03;;;;;;;3.36;100.00;100868.56;6335023;22;19979;-91
2023/04/07 01:39:34;;;;;;;39.63;36.33;;;;;;;3.34;100.00;100859.19;6335283;22;20022;-92
2023/04/07 01:42:03;;;;;;;36.70;33.58;;;;;;;3.30;100.00;100865.69;6335515;22;20068;-92
2023/04/07 01:44:33;;;;;;;42.28;38.75;;;;;;;3.33;100.00;100854.88;6335490;22;20465;-92
2023/04/07 01:47:01;;;;;;;42.28;38.92;;;;;;;3.33;100.00;100857.50;6335603;22;20011;-93
2023/04/07 01:49:30;;;;;;;44.10;40.60;;;;;;;3.24;100.00;100851.41;6335472;22;20085;-93
2023/04/07 01:51:58;;;;;;;38.92;35.65;;;;;;;3.44;100.00;100859.88;6335467;22;20342;-93
2023/04/07 01:54:26;;;;;;;40.20;37.13;;;;;;;3.55;100.00;100854.38;6335922;22;20022;-92
2023/04/07 01:56:53;;;;;;;42.83;39.35;;;;;;;3.36;100.00;100849.31;6335340;22;20046;-93
2023/04/07 01:59:20;;;;;;;38.17;34.97;;;;;;;3.32;100.00;100845.38;6335599;22;20018;-92
2023/04/07 02:01:48;;;;;;;40.53;37.13;;;;;;;3.37;100.00;100848.38;6336216;22;20471;-93
2023/04/07 02:04:22;;;;;;;39.78;36.67;;;;;;;3.35;100.00;100853.75;6337225;22;20043;-94
2023/04/07 02:06:56;;;;;;;34.88;31.95;;;;;;;3.41;100.00;100847.06;6337359;22;20030;-92
2023/04/07 02:09:27;;;;;;;40.58;37.38;;;;;;;3.31;100.00;100849.00;6337115;22;20019;-92
2023/04/07 02:11:58;;;;;;;40.08;36.40;;;;;;;3.34;100.00;100843.44;6337140;22;20018;-92
2023/04/07 02:14:25;;;;;;;37.47;34.17;;;;;;;3.28;100.00;100851.94;6337372;22;20019;-93
2023/04/07 02:16:53;;;;;;;33.90;30.70;;;;;;;3.29;100.00;100848.31;6337223;22;20011;-93
2023/04/07 02:19:21;;;;;;;41.20;37.70;;;;;;;3.30;100.00;100844.69;6337675;22;20022;-92
2023/04/07 02:21:51;;;;;;;45.22;41.65;;;;;;;3.30;100.00;100848.16;6336539;22;20018;-92
2023/04/07 02:24:21;;;;;;;42.78;39.25;;;;;;;3.29;100.00;100845.69;6337139;22;20011;-91
2023/04/07 02:26:48;;;;;;;36.88;33.72;;;;;;;3.19;100.00;100849.25;6337081;22;20030;-92
2023/04/07 02:29:15;;;;;;;36.53;33.33;;;;;;;3.15;100.00;100836.59;6336901;22;20011;-92
2023/04/07 02:31:42;;;;;;;43.03;39.40;;;;;;;3.14;100.00;100848.88;6336133;22;20015;-92
2023/04/07 02:34:09;;;;;;;39.08;35.67;;;;;;;3.12;100.00;100852.66;6335929;22;20023;-94
2023/04/07 02:36:36;;;;;;;40.47;37.17;;;;;;;3.25;100.00;100846.97;6336643;22;20490;-92
2023/04/07 02:39:03;;;;;;;37.75;34.15;;;;;;;3.15;100.00;100861.03;6336849;22;20064;-92
2023/04/07 02:41:31;;;;;;;33.92;30.63;;;;;;;3.14;100.00;100854.13;6336669;22;20026;-92
2023/04/07 02:43:58;;;;;;;36.72;32.20;;;;;;;3.07;100.00;100858.34;6336555;22;20098;-92
2023/04/07 02:46:25;;;;;;;36.13;32.63;;;;;;;3.05;100.00;100862.09;6336908;22;20061;-94
2023/04/07 02:48:52;;;;;;;37.90;34.40;;;;;;;3.03;100.00;100856.19;6336233;22;20029;-93
2023/04/07 02:51:19;;;;;;;36.80;33.00;;;;;;;3.14;100.00;100859.38;6336577;22;20444;-92
2023/04/07 02:53:46;;;;;;;39.92;36.17;;;;;;;3.02;100.00;100863.22;6336656;22;20015;-94
2023/04/07 02:56:13;;;;;;;41.17;37.55;;;;;;;3.04;100.00;100865.72;6336522;22;20061;-92
2023/04/07 02:58:41;;;;;;;43.75;40.17;;;;;;;2.97;100.00;100861.06;6336235;22;20022;-92
2023/04/07 03:01:08;;;;;;;39.58;35.67;;;;;;;3.05;100.00;100870.78;6336731;22;20353;-92
2023/04/07 03:03:35;;;;;;;34.53;31.23;;;;;;;3.05;100.00;100865.53;6336637;22;20010;-93
2023/04/07 03:06:02;;;;;;;37.40;33.83;;;;;;;2.89;100.00;100863.63;6336513;22;20011;-91
2023/04/07 03:08:31;;;;;;;39.20;35.65;;;;;;;2.82;100.00;100877.50;6336813;22;20085;-92
2023/04/07 03:11:01;;;;;;;37.42;33.72;;;;;;;2.88;100.00;100874.28;6336825;22;20015;-93
2023/04/07 03:13:29;;;;;;;32.33;29.48;;;;;;;2.87;100.00;100878.69;6336704;22;20026;-92
2023/04/07 03:16:00;;;;;;;35.60;31.80;;;;;;;2.79;100.00;100873.38;6336683;22;20098;-93
2023/04/07 03:18:27;;;;;;;39.85;36.42;;;;;;;2.82;100.00;100880.13;6337081;22;20019;-92
2023/04/07 03:20:54;;;;;;;38.95;35.90;;;;;;;2.83;100.00;100877.34;6336529;22;20018;-93
2023/04/07 03:23:22;;;;;;;45.50;41.85;;;;;;;2.69;100.00;100886.59;6336629;22;20482;-94
2023/04/07 03:25:49;;;;;;;43.60;39.65;;;;;;;2.79;100.00;100878.63;6336289;22;20026;-93
2023/04/07 03:28:16;;;;;;;42.30;38.60;;;;;;;2.62;100.00;100885.53;6335967;22;20015;-94
2023/04/07 03:30:43;;;;;;;39.33;35.97;;;;;;;2.62;100.00;100890.78;6336913;22;20019;-94
2023/04/07 03:33:11;;;;;;;42.67;38.88;;;;;;;2.59;100.00;100895.50;6332658;22;20534;-93
2023/04/07 03:35:38;;;;;;;39.53;35.55;;;;;;;2.58;100.00;100905.16;6331054;22;20011;-93
2023/04/07 03:38:05;;;;;;;37.47;33.85;;;;;;;2.51;100.00;100904.09;6335148;22;20015;-94
2023/04/07 03:40:32;;;;;;;45.92;42.00;;;;;;;2.39;100.00;100900.03;6335446;22;20014;-92
2023/04/07 03:42:59;;;;;;;43.15;39.17;;;;;;;2.48;100.00;100899.13;6335907;22;20022;-92
2023/04/07 03:52:47;;;;;;;35.95;32.20;;;;;;;2.16;100.00;100904.88;6304165;22;20081;-95
2023/04/07 03:55:14;;;;;;;35.63;31.92;;;;;;;2.13;100.00;100910.41;6303969;22;20015;-95
2023/04/07 04:01:13;;;;;;;34.13;30.52;;;;;;;1.96;100.00;100918.06;6098573;23;20035;-92
2023/04/07 04:03:40;;;;;;;36.20;32.63;;;;;;;1.93;100.00;100917.53;6213241;23;20369;-91
2023/04/07 04:06:10;;;;;;;41.58;37.70;;;;;;;2.03;100.00;100916.53;6212595;23;20021;-92
2023/04/07 04:08:40;;;;;;;38.38;34.90;;;;;;;2.21;100.00;100913.97;6212108;23;20028;-93
2023/04/07 04:11:06;;;;;;;34.47;30.80;;;;;;;2.10;100.00;100914.16;6212903;23;20013;-96
2023/04/07 04:13:39;;;;;;;33.63;30.05;;;;;;;2.12;100.00;100917.47;6212578;23;20365;-92
2023/04/07 04:16:07;;;;;;;36.67;31.05;;;;;;;2.34;100.00;100921.47;6212475;23;20016;-94
2023/04/07 04:18:34;;;;;;;33.67;30.38;;;;;;;2.38;100.00;100929.84;6212204;23;20016;-93
2023/04/07 04:21:05;;;;;;;33.15;29.85;;;;;;;2.14;100.00;100933.84;6211897;23;20023;-91
2023/04/07 04:23:31;;;;;;;31.55;28.38;;;;;;;2.28;100.00;100941.22;6211601;23;20020;-91
2023/04/07 04:26:02;;;;;;;31.63;28.23;;;;;;;2.41;100.00;100942.66;6212053;23;20020;-92
2023/04/07 04:28:30;;;;;;;31.92;28.63;;;;;;;2.41;100.00;100937.44;6210470;23;20505;-92
2023/04/07 04:30:57;;;;;;;31.95;28.77;;;;;;;2.25;100.00;100936.28;6210031;23;20016;-93
2023/04/07 04:33:32;;;;;;;33.38;30.05;;;;;;;2.42;100.00;100933.81;6209266;23;20025;-93
2023/04/07 04:35:59;;;;;;;32.95;28.42;;;;;;;2.55;100.00;100943.97;6210533;23;20283;-94
2023/04/07 04:38:26;;;;;;;32.95;29.30;;;;;;;2.65;100.00;100953.41;6210721;23;20012;-93
2023/04/07 04:40:53;;;;;;;34.15;30.50;;;;;;;2.75;100.00;100955.97;6210983;23;20028;-93
2023/04/07 04:43:30;;;;;;;33.05;29.65;;;;;;;2.88;100.00;100955.63;6210617;23;20032;-93
2023/04/07 04:45:59;;;;;;;33.53;30.10;;;;;;;3.00;100.00;100951.78;6210914;23;20017;-92
2023/04/07 04:48:26;;;;;;;32.28;28.80;;;;;;;3.07;100.00;100957.25;6210831;23;20071;-92
2023/04/07 04:50:53;;;;;;;32.83;29.38;;;;;;;3.07;100.00;100965.13;6220400;23;20512;-92
2023/04/07 04:53:20;;;;;;;33.60;30.35;;;;;;;3.22;100.00;100972.31;6238851;22;20027;-93
2023/04/07 04:55:50;;;;;;;35.38;30.80;;;;;;;3.23;100.00;100973.13;6240526;22;20012;-93
2023/04/07 04:58:18;;;;;;;34.17;30.67;;;;;;;3.48;100.00;100975.94;6240585;22;20020;-92
2023/04/07 05:00:46;;;;;;;34.88;31.23;;;;;;;3.58;100.00;100974.06;6240103;22;20020;-95
2023/04/07 09:50:10;;;;;;;27.75;25.52;;;;;;;9.50;89.17;101113.88;6225530;22;20320;-94
2023/04/07 09:52:51;;;;;;;29.00;26.35;;;;;;;9.66;89.52;101136.69;6241558;23;20012;-94
2023/04/07 09:55:20;;;;;;;30.75;28.25;;;;;;;9.58;96.54;101125.16;6241218;23;20040;-93
2023/04/07 09:57:50;;;;;;;28.90;26.40;;;;;;;9.51;87.92;101126.13;6241348;23;20019;-94
2023/04/07 10:00:17;;;;;;;28.48;25.92;;;;;;;11.27;84.89;101125.03;6241553;23;20100;-94
2023/04/07 10:02:44;;;;;;;27.42;24.70;;;;;;;11.27;85.84;101124.22;6242149;23;20020;-95
2023/04/07 10:05:12;;;;;;;25.17;23.02;;;;;;;10.49;84.77;101143.91;6241829;23;20020;-94
2023/04/07 10:07:40;;;;;;;29.00;26.33;;;;;;;10.19;74.13;101131.81;6240857;23;20027;-94
2023/04/07 10:10:08;;;;;;;31.35;28.85;;;;;;;9.67;87.24;101127.72;6239770;23;20073;-93
2023/04/07 10:12:37;;;;;;;28.95;26.35;;;;;;;9.10;99.29;101135.47;6240726;23;20031;-93
2023/04/07 10:15:04;;;;;;;28.23;25.40;;;;;;;9.52;98.90;101138.38;6240336;23;20020;-93
2023/04/07 10:17:32;;;;;;;30.27;27.58;;;;;;;9.53;93.04;101138.19;6239896;23;20016;-92
2023/04/07 10:20:01;;;;;;;26.42;24.23;;;;;;;10.35;94.70;101142.19;6240379;23;20020;-92
2023/04/07 10:22:30;;;;;;;27.95;25.42;;;;;;;10.60;82.27;101128.44;6241667;23;20019;-94
2023/04/07 10:25:02;;;;;;;33.00;30.42;;;;;;;9.24;83.54;101132.97;6244350;23;20109;-93
2023/04/07 10:27:33;;;;;;;31.77;28.92;;;;;;;10.34;90.28;101131.75;6244137;23;20012;-94
2023/04/07 10:30:02;;;;;;;34.95;31.75;;;;;;;10.52;86.95;101135.53;6243906;23;20488;-94
2023/04/07 10:32:29;;;;;;;29.90;27.35;;;;;;;9.82;82.25;101126.63;6243858;23;20023;-95
2023/04/07 10:34:58;;;;;;;28.75;26.25;;;;;;;9.64;96.26;101132.38;6243998;23;20016;-94
2023/04/07 10:37:26;;;;;;;28.52;26.00;;;;;;;9.93;92.67;101129.78;6243400;23;20016;-92
2023/04/07 10:40:30;;;;;;;31.70;29.10;;;;;;;10.00;84.11;101133.31;6243503;23;20024;-93
2023/04/07 10:42:57;;;;;;;30.25;27.85;;;;;;;10.43;74.97;101128.75;6244091;23;20078;-95
2023/04/07 10:45:55;;;;;;;31.15;28.58;;;;;;;10.05;73.73;101130.91;6243504;23;20023;-93
2023/04/07 10:48:22;;;;;;;29.25;27.02;;;;;;;10.20;79.81;101138.78;6234898;23;20365;-94
2023/04/07 10:51:14;;;;;;;28.98;26.33;;;;;;;9.86;90.00;101135.00;6243772;23;20024;-95
2023/04/07 10:54:17;;;;;;;29.65;27.35;;;;;;;9.80;75.98;101141.94;6243614;23;20377;-94
2023/04/07 10:57:14;;;;;;;;;;;;;;;9.80;79.21;101141.94;6244248;23;20046;-94
2023/04/07 11:00:15;;;;;;;30.63;27.77;;;;;;;9.76;77.95;101139.84;6121878;23;19917;-93
2023/04/07 11:02:43;;;;;;;29.10;26.20;;;;;;;9.99;81.01;101142.28;6243169;23;20048;-93
2023/04/07 11:05:21;;;;;;;28.40;25.83;;;;;;;9.34;85.62;101131.66;6243439;23;20074;-92
2023/04/07 11:07:50;;;;;;;29.80;26.92;;;;;;;10.75;81.14;101131.78;6243805;23;20023;-93
2023/04/07 11:10:18;;;;;;;29.40;26.83;;;;;;;10.29;100.00;101137.66;6243704;23;20473;-93
2023/04/07 11:12:58;;;;;;;28.88;26.45;;;;;;;11.08;90.37;101126.63;6243670;23;20106;-93
2023/04/07 11:15:27;;;;;;;28.20;25.90;;;;;;;10.61;95.80;101125.56;6243459;23;20043;-93
2023/04/07 11:18:13;;;;;;;26.17;24.10;;;;;;;10.63;86.17;101126.22;6243982;23;20048;-95
2023/04/07 11:20:58;;;;;;;28.15;25.65;;;;;;;10.18;94.68;101133.66;6243352;23;20024;-93
2023/04/07 11:23:26;;;;;;;29.27;26.55;;;;;;;10.53;86.96;101131.88;6243379;23;20020;-93
2023/04/07 11:26:00;;;;;;;30.95;28.45;;;;;;;11.51;71.75;101129.00;6243468;23;20028;-93
2023/04/07 11:28:28;;;;;;;31.48;28.58;;;;;;;12.12;69.16;101126.19;6243753;23;20369;-95
2023/04/07 11:30:58;;;;;;;29.80;26.92;;;;;;;12.22;75.39;101132.94;6243335;23;20017;-92
2023/04/07 11:33:29;;;;;;;28.65;26.35;;;;;;;11.76;82.46;101123.91;6243841;23;20044;-93
2023/04/07 11:35:58;;;;;;;29.08;26.95;;;;;;;11.42;84.76;101131.00;6243449;23;20095;-93
2023/04/07 11:38:28;;;;;;;31.17;28.48;;;;;;;11.91;79.31;101124.53;6243165;23;20346;-93
2023/04/07 11:40:56;;;;;;;31.30;28.50;;;;;;;12.61;68.28;101116.88;6243634;23;20016;-93
2023/04/07 11:43:24;;;;;;;30.65;27.92;;;;;;;11.87;71.54;101125.16;6243739;23;20017;-93
2023/04/07 11:46:07;;;;;;;26.90;24.77;;;;;;;11.13;88.87;101129.47;6243259;23;20012;-92
2023/04/07 11:48:35;;;;;;;28.67;26.08;;;;;;;11.83;81.62;101135.38;6243512;23;20020;-93
2023/04/07 11:51:02;;;;;;;30.20;27.35;;;;;;;11.81;81.03;101132.09;6243037;23;20031;-93
2023/04/07 11:53:31;;;;;;;29.55;27.00;;;;;;;13.41;71.99;101121.09;6243346;23;20020;-96
2023/04/07 11:56:03;;;;;;;33.10;30.23;;;;;;;12.96;64.99;101127.22;6243218;23;20018;-95
2023/04/07 11:58:30;;;;;;;29.25;26.63;;;;;;;11.57;73.08;101119.38;6243411;23;20342;-94
2023/04/07 12:00:57;;;;;;;32.83;29.92;;;;;;;12.97;65.54;101115.50;6243391;23;20017;-93
2023/04/07 12:03:26;;;;;;;30.33;27.77;;;;;;;11.41;71.70;101124.06;6243448;23;20016;-95
2023/04/07 12:05:53;;;;;;;30.33;27.52;;;;;;;11.48;71.37;101125.91;6243153;23;20107;-94
2023/04/07 12:08:20;;;;;;;29.88;27.58;;;;;;;12.48;62.54;101122.25;6243210;23;20016;-96
2023/04/07 12:10:47;;;;;;;27.88;25.42;;;;;;;12.26;72.61;101118.19;6243306;23;20016;-92
2023/04/07 12:13:14;;;;;;;28.38;26.02;;;;;;;11.55;78.46;101130.22;6243386;23;20045;-94
2023/04/07 12:15:41;;;;;;;27.50;25.38;;;;;;;11.71;76.57;101123.72;6243238;23;20070;-94
2023/04/07 12:18:08;;;;;;;32.15;29.27;;;;;;;11.19;74.35;101122.56;6242936;23;20017;-93
2023/04/07 12:20:36;;;;;;;32.03;29.48;;;;;;;12.06;81.25;101132.31;6243332;23;20020;-93
2023/04/07 12:23:03;;;;;;;31.30;28.50;;;;;;;10.53;82.44;101131.88;6243085;23;20085;-92
2023/04/07 12:25:30;;;;;;;30.23;27.50;;;;;;;12.49;79.73;101131.03;6243453;23;20016;-93
2023/04/07 12:27:57;;;;;;;26.60;24.40;;;;;;;11.74;73.75;101133.94;6242900;23;20012;-94
2023/04/07 12:30:24;;;;;;;28.60;25.95;;;;;;;11.21;74.27;101134.63;6243679;23;20031;-92
2023/04/07 12:32:51;;;;;;;31.40;28.45;;;;;;;12.00;69.17;101135.81;6243053;23;20020;-93
2023/04/07 12:35:18;;;;;;;28.25;25.77;;;;;;;11.00;76.80;101127.59;6243076;23;20473;-92
2023/04/07 12:37:46;;;;;;;30.23;27.63;;;;;;;11.74;72.97;101133.09;6242561;23;20022;-93
2023/04/07 12:40:14;;;;;;;30.08;26.98;;;;;;;11.10;81.57;101139.69;6242697;23;20027;-93
2023/04/07 12:42:41;;;;;;;28.52;25.83;;;;;;;11.18;74.13;101144.84;6243115;23;20476;-93
2023/04/07 12:45:09;;;;;;;28.33;25.83;;;;;;;11.05;75.63;101142.97;6242978;23;20012;-93
2023/04/07 12:47:36;;;;;;;30.05;27.60;;;;;;;10.59;75.22;101148.03;6242814;23;20019;-93
2023/04/07 12:50:03;;;;;;;29.10;26.58;;;;;;;10.26;91.90;101148.63;6243216;23;20020;-92
2023/04/07 12:52:30;;;;;;;31.77;28.63;;;;;;;10.75;100.00;101145.09;6242834;23;20023;-92
2023/04/07 12:54:59;;;;;;;32.92;29.95;;;;;;;10.78;99.31;101144.69;6242986;23;20039;-92
2023/04/07 12:57:26;;;;;;;30.42;27.70;;;;;;;10.84;99.30;101138.59;6242457;23;20021;-93
2023/04/07 12:59:53;;;;;;;29.98;27.33;;;;;;;10.81;100.00;101149.59;6243063;23;20016;-93
2023/04/07 13:02:20;;;;;;;35.10;31.95;;;;;;;10.47;96.26;101142.47;6242850;23;20074;-93
2023/04/07 13:04:47;;;;;;;31.15;28.55;;;;;;;10.37;98.11;101152.59;6242801;23;20045;-94
2023/04/07 13:07:14;;;;;;;29.38;26.90;;;;;;;10.21;95.79;101159.81;6242769;23;20095;-93
2023/04/07 13:09:42;;;;;;;29.48;26.88;;;;;;;11.02;100.00;101150.53;6243333;23;20466;-93
2023/04/07 13:12:11;;;;;;;28.88;26.52;;;;;;;10.84;92.17;101157.19;6243116;23;20016;-94
2023/04/07 13:14:38;;;;;;;30.98;28.10;;;;;;;10.93;95.28;101160.50;6243135;23;20012;-94
2023/04/07 13:17:06;;;;;;;31.88;28.65;;;;;;;11.55;96.70;101162.13;6243000;23;20059;-94
2023/04/07 13:19:33;;;;;;;31.08;28.10;;;;;;;11.09;100.00;101162.00;6242776;23;20091;-93
2023/04/07 13:22:00;;;;;;;28.67;25.73;;;;;;;10.80;100.00;101171.84;6242896;23;20023;-93
2023/04/07 13:24:27;;;;;;;29.23;26.33;;;;;;;10.69;100.00;101175.91;6242844;23;20016;-93
2023/04/07 13:26:54;;;;;;;31.98;28.98;;;;;;;11.15;100.00;101175.31;6242684;23;20097;-93
2023/04/07 13:29:23;;;;;;;25.85;23.65;;;;;;;10.79;100.00;101180.84;6242757;23;20020;-94
2023/04/07 13:31:50;;;;;;;31.58;28.48;;;;;;;10.66;100.00;101183.44;6242892;23;20016;-95
2023/04/07 13:34:17;;;;;;;32.15;28.83;;;;;;;10.80;100.00;101177.19;6242964;23;20012;-92
2023/04/07 13:36:44;;;;;;;31.92;28.77;;;;;;;10.74;100.00;101184.13;6242127;23;20024;-93
2023/04/07 13:39:12;;;;;;;26.48;24.23;;;;;;;11.05;100.00;101184.69;6242776;23;20027;-92
2023/04/07 13:41:39;;;;;;;28.85;26.13;;;;;;;10.49;100.00;101188.22;6242834;23;20016;-93
2023/04/07 13:44:05;;;;;;;26.08;23.80;;;;;;;10.58;100.00;101194.22;6243763;23;20469;-93
2023/04/07 13:46:34;;;;;;;30.15;27.42;;;;;;;10.69;100.00;101199.81;6242438;23;20085;-94
2023/04/07 13:49:01;;;;;;;29.63;27.02;;;;;;;10.66;100.00;101196.72;6242092;23;20370;-93
2023/04/07 13:51:28;;;;;;;29.58;26.65;;;;;;;10.68;100.00;101194.69;6242227;23;20474;-93
2023/04/07 13:53:55;;;;;;;23.33;21.42;;;;;;;10.31;100.00;101201.97;6243229;23;20016;-94
2023/04/07 13:56:22;;;;;;;29.20;26.42;;;;;;;10.01;100.00;101203.94;6242645;23;20461;-94
2023/04/07 13:58:49;;;;;;;28.50;25.90;;;;;;;9.51;100.00;101205.69;6244119;23;20024;-94
2023/04/07 14:01:16;;;;;;;23.80;21.88;;;;;;;9.74;100.00;101209.00;6244462;23;20083;-93
2023/04/07 14:03:45;;;;;;;27.25;24.70;;;;;;;9.57;100.00;101207.59;6244985;23;20016;-92
2023/04/07 14:06:12;;;;;;;26.52;24.23;;;;;;;9.74;100.00;101216.13;6244459;23;20020;-94
2023/04/07 14:08:39;;;;;;;27.15;24.60;;;;;;;9.98;100.00;101212.28;6244309;23;20030;-93
2023/04/07 14:11:06;;;;;;;27.00;24.38;;;;;;;9.70;100.00;101217.50;6244732;23;20377;-92
2023/04/07 14:13:32;;;;;;;26.05;23.70;;;;;;;9.54;100.00;101216.72;6244682;23;20016;-93
2023/04/07 14:15:59;;;;;;;27.05;24.55;;;;;;;9.27;100.00;101220.91;6244588;23;20016;-94
2023/04/07 14:18:26;;;;;;;26.20;23.77;;;;;;;9.21;100.00;101226.94;6243707;23;20020;-94
2023/04/07 14:20:55;;;;;;;35.13;31.48;;;;;;;9.04;100.00;101228.94;6244525;23;20044;-94
2023/04/07 14:23:22;;;;;;;32.50;29.50;;;;;;;9.10;100.00;101230.03;6244288;23;20012;-93
2023/04/07 14:25:49;;;;;;;24.75;22.65;;;;;;;9.47;100.00;101226.44;6244579;23;20087;-94
2023/04/07 14:28:15;;;;;;;25.27;23.10;;;;;;;9.32;100.00;101241.53;6244153;23;20020;-96
2023/04/07 14:30:43;;;;;;;30.30;27.40;;;;;;;9.03;100.00;101234.44;6244403;23;20284;-93
2023/04/07 14:33:10;;;;;;;64.30;44.47;;;;;;;8.72;100.00;101243.38;6244367;23;20023;-92
2023/04/07 14:35:38;;;;;;;32.45;29.15;;;;;;;8.95;100.00;101240.63;6244111;23;20042;-92
2023/04/07 14:38:06;;;;;;;47.17;41.67;;;;;;;8.86;100.00;101247.84;6243565;23;20043;-93
2023/04/07 14:40:33;;;;;;;64.47;48.10;;;;;;;8.74;100.00;101249.28;6244303;23;20017;-95
2023/04/07 14:43:00;;;;;;;29.60;26.88;;;;;;;8.81;100.00;101244.13;6244129;23;20016;-94
2023/04/07 14:45:27;;;;;;;31.73;28.63;;;;;;;8.70;100.00;101246.19;6243725;23;20016;-93
2023/04/07 14:47:54;;;;;;;32.70;29.38;;;;;;;8.67;100.00;101254.50;6243915;23;20046;-93
2023/04/07 14:50:22;;;;;;;25.15;22.77;;;;;;;8.92;100.00;101263.00;6243062;23;20068;-94
2023/04/07 14:52:49;;;;;;;28.08;25.48;;;;;;;8.93;100.00;101247.97;6243679;23;20099;-94
2023/04/07 14:55:18;;;;;;;28.60;25.92;;;;;;;8.63;100.00;101269.13;6243796;23;20020;-93
2023/04/07 14:57:45;;;;;;;29.52;26.73;;;;;;;8.80;100.00;101259.16;6244152;23;20054;-94
2023/04/07 15:00:12;;;;;;;30.50;27.60;;;;;;;8.65;100.00;101267.13;6242797;23;20016;-92
2023/04/07 15:02:39;;;;;;;27.52;25.15;;;;;;;8.66;100.00;101268.75;6243645;23;20015;-93
2023/04/07 15:05:07;;;;;;;30.23;27.35;;;;;;;8.53;100.00;101275.66;6242726;23;20035;-93
2023/04/07 15:07:35;;;;;;;29.80;27.00;;;;;;;8.85;100.00;101277.19;6242961;23;20012;-94
2023/04/07 15:10:02;;;;;;;30.40;27.52;;;;;;;8.40;100.00;101281.56;6242397;23;20082;-93
2023/04/07 15:12:32;;;;;;;31.38;28.48;;;;;;;8.60;100.00;101295.13;6243102;23;20482;-94
2023/04/07 15:14:59;;;;;;;28.70;26.05;;;;;;;8.10;100.00;101299.09;6242924;23;20556;-92
2023/04/07 15:17:26;;;;;;;30.23;27.33;;;;;;;8.19;100.00;101285.63;6243111;23;20024;-94
2023/04/07 15:19:53;;;;;;;32.08;29.02;;;;;;;8.15;100.00;101294.94;6242688;23;20025;-95
2023/04/07 15:22:19;;;;;;;31.73;28.67;;;;;;;8.13;100.00;101291.63;6243765;23;20352;-94
2023/04/07 15:24:46;;;;;;;32.13;28.92;;;;;;;7.75;100.00;101288.06;6242797;23;20016;-94
2023/04/07 15:27:13;;;;;;;29.90;27.08;;;;;;;8.11;100.00;101298.94;6243400;23;20016;-94
2023/04/07 15:29:42;;;;;;;27.55;25.05;;;;;;;8.20;100.00;101294.38;6243912;23;20012;-93
2023/04/07 15:32:09;;;;;;;29.67;26.92;;;;;;;8.14;100.00;101303.03;6243762;23;20082;-94
2023/04/07 15:34:36;;;;;;;34.08;30.88;;;;;;;8.00;100.00;101299.34;6242617;23;20074;-93
2023/04/07 15:37:03;;;;;;;32.33;29.20;;;;;;;7.86;100.00;101298.25;6243589;23;20012;-93
2023/04/07 15:39:30;;;;;;;61.58;49.97;;;;;;;7.84;100.00;101297.63;6242200;23;20096;-94
2023/04/07 15:41:57;;;;;;;111.00;75.43;;;;;;;7.86;100.00;101297.41;6240067;23;20024;-94
2023/04/07 15:44:24;;;;;;;48.72;43.70;;;;;;;8.15;100.00;101302.06;6241982;23;20020;-93
2023/04/07 15:46:53;;;;;;;53.08;44.58;;;;;;;7.78;100.00;101293.84;6241868;23;20022;-92
2023/04/07 15:49:21;;;;;;;53.03;47.33;;;;;;;7.88;100.00;101308.66;6242298;23;20016;-93
2023/04/07 15:51:48;;;;;;;34.20;30.80;;;;;;;7.76;100.00;101316.97;6241976;23;20019;-94
2023/04/07 15:54:15;;;;;;;34.45;31.02;;;;;;;7.92;100.00;101307.31;6241102;23;20024;-92
2023/04/07 15:56:42;;;;;;;34.67;31.08;;;;;;;7.79;100.00;101318.44;6242511;23;20020;-91
2023/04/07 15:59:09;;;;;;;33.03;29.50;;;;;;;7.55;100.00;101316.75;6242449;23;20016;-92
2023/04/07 16:01:41;;;;;;;35.70;32.03;;;;;;;7.99;100.00;101316.22;6242958;23;20512;-93
2023/04/07 16:04:09;;;;;;;34.55;31.25;;;;;;;7.58;100.00;101319.84;6243036;23;20093;-92
2023/04/07 16:06:36;;;;;;;31.75;28.63;;;;;;;7.38;100.00;101323.06;6242330;23;20027;-92
2023/04/07 16:09:04;;;;;;;32.33;29.33;;;;;;;7.95;100.00;101314.88;6242822;23;20020;-91
2023/04/07 16:11:31;;;;;;;28.67;25.95;;;;;;;7.75;100.00;101327.75;6242388;23;20035;-92
2023/04/07 16:13:58;;;;;;;33.03;28.90;;;;;;;7.57;100.00;101334.09;6242447;23;20020;-91
2023/04/07 16:16:25;;;;;;;32.20;28.75;;;;;;;7.52;100.00;101335.59;6242541;23;20343;-91